sensor_id;sensor_type;location;lat;lon;timestamp;P1;durP1;ratioP1;P2;durP2;ratioP2
18411;SDS011;27097;51.738;19.472;2023-04-03T00:01:39;2.72;;;1.67;;
18411;SDS011;27097;51.738;19.472;2023-04-03T00:04:07;2.22;;;1.60;;
18411;SDS011;27097;51.738;19.472;2023-04-03T00:06:52;3.75;;;1.80;;
18411;SDS011;27097;51.738;19.472;2023-04-03T00:09:21;4.18;;;1.50;;
18411;SDS011;27097;51.738;19.472;2023-04-03T00:11:51;6.53;;;1.67;;
18411;SDS011;27097;51.738;19.472;2023-04-03T00:14:21;2.08;;;1.73;;
18411;SDS011;27097;51.738;19.472;2023-04-03T00:20:23;10.20;;;2.28;;
18411;SDS011;27097;51.738;19.472;2023-04-03T00:22:51;8.50;;;2.15;;
18411;SDS011;27097;51.738;19.472;2023-04-03T00:28:12;8.02;;;2.33;;
18411;SDS011;27097;51.738;19.472;2023-04-03T00:30:39;6.00;;;1.90;;
18411;SDS011;27097;51.738;19.472;2023-04-03T00:33:06;5.78;;;2.10;;
18411;SDS011;27097;51.738;19.472;2023-04-03T00:35:33;7.97;;;2.60;;
18411;SDS011;27097;51.738;19.472;2023-04-03T00:59:30;8.25;;;2.17;;
18411;SDS011;27097;51.738;19.472;2023-04-03T01:02:00;7.63;;;2.17;;
18411;SDS011;27097;51.738;19.472;2023-04-03T01:04:27;9.40;;;2.22;;
18411;SDS011;27097;51.738;19.472;2023-04-03T01:06:56;5.68;;;2.17;;
18411;SDS011;27097;51.738;19.472;2023-04-03T01:09:26;5.22;;;1.77;;
18411;SDS011;27097;51.738;19.472;2023-04-03T01:12:02;5.95;;;2.22;;
18411;SDS011;27097;51.738;19.472;2023-04-03T01:14:55;9.43;;;1.92;;
18411;SDS011;27097;51.738;19.472;2023-04-03T01:43:49;7.65;;;2.10;;
18411;SDS011;27097;51.738;19.472;2023-04-03T01:46:16;6.95;;;1.80;;
18411;SDS011;27097;51.738;19.472;2023-04-03T01:48:45;5.53;;;1.80;;
18411;SDS011;27097;51.738;19.472;2023-04-03T01:51:12;3.70;;;2.00;;
18411;SDS011;27097;51.738;19.472;2023-04-03T01:53:39;4.07;;;1.98;;
18411;SDS011;27097;51.738;19.472;2023-04-03T01:56:06;3.78;;;2.10;;
18411;SDS011;27097;51.738;19.472;2023-04-03T01:58:36;4.35;;;1.65;;
18411;SDS011;27097;51.738;19.472;2023-04-03T02:01:09;4.38;;;2.05;;
18411;SDS011;27097;51.738;19.472;2023-04-03T02:03:53;4.07;;;1.60;;
18411;SDS011;27097;51.738;19.472;2023-04-03T02:06:29;3.67;;;1.90;;
18411;SDS011;27097;51.738;19.472;2023-04-03T02:09:22;5.43;;;2.25;;
18411;SDS011;27097;51.738;19.472;2023-04-03T02:11:49;2.65;;;1.77;;
18411;SDS011;27097;51.738;19.472;2023-04-03T02:14:16;3.78;;;2.10;;
18411;SDS011;27097;51.738;19.472;2023-04-03T02:16:50;4.30;;;1.73;;
18411;SDS011;27097;51.738;19.472;2023-04-03T02:19:23;7.72;;;1.90;;
18411;SDS011;27097;51.738;19.472;2023-04-03T02:21:50;2.78;;;2.10;;
18411;SDS011;27097;51.738;19.472;2023-04-03T02:24:17;6.85;;;1.90;;
18411;SDS011;27097;51.738;19.472;2023-04-03T02:33:33;5.47;;;2.00;;
18411;SDS011;27097;51.738;19.472;2023-04-03T02:36:07;9.38;;;2.20;;
18411;SDS011;27097;51.738;19.472;2023-04-03T02:38:35;3.95;;;1.55;;
18411;SDS011;27097;51.738;19.472;2023-04-03T02:41:02;4.32;;;1.60;;
18411;SDS011;27097;51.738;19.472;2023-04-03T02:43:30;4.70;;;1.75;;
18411;SDS011;27097;51.738;19.472;2023-04-03T02:45:59;4.22;;;1.70;;
18411;SDS011;27097;51.738;19.472;2023-04-03T02:48:25;4.82;;;1.67;;
18411;SDS011;27097;51.738;19.472;2023-04-03T02:50:54;3.33;;;1.52;;
18411;SDS011;27097;51.738;19.472;2023-04-03T02:53:21;2.38;;;1.70;;
18411;SDS011;27097;51.738;19.472;2023-04-03T02:55:48;3.40;;;1.60;;
18411;SDS011;27097;51.738;19.472;2023-04-03T02:58:15;3.13;;;1.50;;
18411;SDS011;27097;51.738;19.472;2023-04-03T03:00:42;3.60;;;1.85;;
18411;SDS011;27097;51.738;19.472;2023-04-03T03:03:09;3.10;;;1.60;;
18411;SDS011;27097;51.738;19.472;2023-04-03T03:05:36;3.53;;;1.80;;
18411;SDS011;27097;51.738;19.472;2023-04-03T03:08:04;4.13;;;1.67;;
18411;SDS011;27097;51.738;19.472;2023-04-03T03:10:31;2.25;;;1.52;;
18411;SDS011;27097;51.738;19.472;2023-04-03T03:12:58;5.38;;;1.65;;
18411;SDS011;27097;51.738;19.472;2023-04-03T03:15:26;2.38;;;1.55;;
18411;SDS011;27097;51.738;19.472;2023-04-03T03:17:52;3.30;;;1.70;;
18411;SDS011;27097;51.738;19.472;2023-04-03T03:20:19;3.05;;;1.70;;
18411;SDS011;27097;51.738;19.472;2023-04-03T03:22:46;7.65;;;1.48;;
18411;SDS011;27097;51.738;19.472;2023-04-03T03:25:14;4.45;;;1.70;;
18411;SDS011;27097;51.738;19.472;2023-04-03T03:27:44;3.45;;;1.80;;
18411;SDS011;27097;51.738;19.472;2023-04-03T03:30:12;4.53;;;1.73;;
18411;SDS011;27097;51.738;19.472;2023-04-03T03:32:39;4.78;;;1.58;;
18411;SDS011;27097;51.738;19.472;2023-04-03T03:35:06;2.33;;;1.50;;
18411;SDS011;27097;51.738;19.472;2023-04-03T03:37:33;3.90;;;1.60;;
18411;SDS011;27097;51.738;19.472;2023-04-03T03:40:00;5.30;;;1.60;;
18411;SDS011;27097;51.738;19.472;2023-04-03T03:42:28;5.35;;;1.70;;
18411;SDS011;27097;51.738;19.472;2023-04-03T03:44:55;4.55;;;1.50;;
18411;SDS011;27097;51.738;19.472;2023-04-03T03:47:22;5.93;;;1.83;;
18411;SDS011;27097;51.738;19.472;2023-04-03T03:49:57;2.92;;;1.48;;
18411;SDS011;27097;51.738;19.472;2023-04-03T03:52:25;2.83;;;1.52;;
18411;SDS011;27097;51.738;19.472;2023-04-03T03:54:52;4.60;;;1.80;;
18411;SDS011;27097;51.738;19.472;2023-04-03T03:57:24;5.15;;;1.67;;
18411;SDS011;27097;51.738;19.472;2023-04-03T03:59:55;4.85;;;1.38;;
18411;SDS011;27097;51.738;19.472;2023-04-03T04:02:21;3.53;;;1.80;;
18411;SDS011;27097;51.738;19.472;2023-04-03T04:04:48;3.72;;;1.52;;
18411;SDS011;27097;51.738;19.472;2023-04-03T04:07:15;3.58;;;1.70;;
18411;SDS011;27097;51.738;19.472;2023-04-03T04:13:07;4.00;;;1.60;;
18411;SDS011;27097;51.738;19.472;2023-04-03T04:18:06;2.72;;;1.42;;
18411;SDS011;27097;51.738;19.472;2023-04-03T04:20:33;3.33;;;1.70;;
18411;SDS011;27097;51.738;19.472;2023-04-03T04:22:59;2.00;;;1.27;;
18411;SDS011;27097;51.738;19.472;2023-04-03T04:25:26;4.75;;;1.70;;
18411;SDS011;27097;51.738;19.472;2023-04-03T04:28:03;3.33;;;1.38;;
18411;SDS011;27097;51.738;19.472;2023-04-03T04:30:32;3.10;;;1.70;;
18411;SDS011;27097;51.738;19.472;2023-04-03T04:32:59;5.40;;;1.50;;
18411;SDS011;27097;51.738;19.472;2023-04-03T04:35:27;3.63;;;1.63;;
18411;SDS011;27097;51.738;19.472;2023-04-03T04:37:55;2.60;;;1.50;;
18411;SDS011;27097;51.738;19.472;2023-04-03T04:40:22;3.13;;;1.60;;
18411;SDS011;27097;51.738;19.472;2023-04-03T04:48:48;3.95;;;1.50;;
18411;SDS011;27097;51.738;19.472;2023-04-03T04:51:16;3.92;;;1.70;;
18411;SDS011;27097;51.738;19.472;2023-04-03T04:53:43;4.97;;;1.75;;
18411;SDS011;27097;51.738;19.472;2023-04-03T04:56:10;4.85;;;1.40;;
18411;SDS011;27097;51.738;19.472;2023-04-03T04:58:37;4.10;;;1.45;;
18411;SDS011;27097;51.738;19.472;2023-04-03T05:01:04;2.60;;;1.50;;
18411;SDS011;27097;51.738;19.472;2023-04-03T05:03:39;8.05;;;1.80;;
18411;SDS011;27097;51.738;19.472;2023-04-03T05:06:06;3.53;;;1.60;;
18411;SDS011;27097;51.738;19.472;2023-04-03T05:08:34;2.42;;;1.67;;
18411;SDS011;27097;51.738;19.472;2023-04-03T05:11:01;2.78;;;1.50;;
18411;SDS011;27097;51.738;19.472;2023-04-03T05:20:12;6.15;;;1.50;;
18411;SDS011;27097;51.738;19.472;2023-04-03T05:22:39;3.25;;;1.67;;
18411;SDS011;27097;51.738;19.472;2023-04-03T05:31:01;2.97;;;1.75;;
18411;SDS011;27097;51.738;19.472;2023-04-03T05:33:37;2.10;;;1.30;;
18411;SDS011;27097;51.738;19.472;2023-04-03T05:36:04;8.98;;;1.63;;
18411;SDS011;27097;51.738;19.472;2023-04-03T05:38:32;6.15;;;1.90;;
18411;SDS011;27097;51.738;19.472;2023-04-03T05:41:00;5.70;;;1.63;;
18411;SDS011;27097;51.738;19.472;2023-04-03T05:43:29;12.50;;;2.00;;
18411;SDS011;27097;51.738;19.472;2023-04-03T05:45:56;28.83;;;3.47;;
18411;SDS011;27097;51.738;19.472;2023-04-03T05:48:25;9.57;;;1.90;;
18411;SDS011;27097;51.738;19.472;2023-04-03T05:50:55;6.15;;;1.95;;
18411;SDS011;27097;51.738;19.472;2023-04-03T05:53:23;11.45;;;1.90;;
18411;SDS011;27097;51.738;19.472;2023-04-03T05:56:20;7.45;;;1.88;;
18411;SDS011;27097;51.738;19.472;2023-04-03T05:58:48;10.52;;;2.40;;
18411;SDS011;27097;51.738;19.472;2023-04-03T06:01:21;8.70;;;2.13;;
18411;SDS011;27097;51.738;19.472;2023-04-03T06:06:44;24.73;;;3.22;;
18411;SDS011;27097;51.738;19.472;2023-04-03T06:09:13;16.05;;;3.05;;
18411;SDS011;27097;51.738;19.472;2023-04-03T06:11:41;13.13;;;2.83;;
18411;SDS011;27097;51.738;19.472;2023-04-03T06:14:09;14.52;;;2.60;;
18411;SDS011;27097;51.738;19.472;2023-04-03T06:16:36;12.75;;;2.58;;
18411;SDS011;27097;51.738;19.472;2023-04-03T06:19:04;11.20;;;2.20;;
18411;SDS011;27097;51.738;19.472;2023-04-03T06:26:52;14.50;;;2.53;;
18411;SDS011;27097;51.738;19.472;2023-04-03T06:29:34;18.02;;;2.67;;
18411;SDS011;27097;51.738;19.472;2023-04-03T06:32:02;8.43;;;2.40;;
18411;SDS011;27097;51.738;19.472;2023-04-03T06:34:28;7.85;;;2.47;;
18411;SDS011;27097;51.738;19.472;2023-04-03T06:36:56;9.52;;;2.72;;
18411;SDS011;27097;51.738;19.472;2023-04-03T06:39:23;11.75;;;2.70;;
18411;SDS011;27097;51.738;19.472;2023-04-03T06:41:50;10.50;;;2.47;;
18411;SDS011;27097;51.738;19.472;2023-04-03T06:44:17;17.23;;;2.53;;
18411;SDS011;27097;51.738;19.472;2023-04-03T06:46:46;10.75;;;2.97;;
18411;SDS011;27097;51.738;19.472;2023-04-03T06:49:13;9.45;;;2.55;;
18411;SDS011;27097;51.738;19.472;2023-04-03T06:51:40;11.32;;;2.50;;
18411;SDS011;27097;51.738;19.472;2023-04-03T06:54:13;10.60;;;3.00;;
18411;SDS011;27097;51.738;19.472;2023-04-03T06:56:40;10.27;;;2.60;;
18411;SDS011;27097;51.738;19.472;2023-04-03T06:59:07;11.68;;;2.47;;
18411;SDS011;27097;51.738;19.472;2023-04-03T07:01:36;16.20;;;2.78;;
18411;SDS011;27097;51.738;19.472;2023-04-03T07:12:52;8.07;;;2.45;;
18411;SDS011;27097;51.738;19.472;2023-04-03T07:15:29;10.95;;;2.63;;
18411;SDS011;27097;51.738;19.472;2023-04-03T07:17:56;13.13;;;2.70;;
18411;SDS011;27097;51.738;19.472;2023-04-03T07:20:30;8.05;;;2.60;;
18411;SDS011;27097;51.738;19.472;2023-04-03T07:22:58;8.57;;;2.22;;
18411;SDS011;27097;51.738;19.472;2023-04-03T07:25:24;8.93;;;2.88;;
18411;SDS011;27097;51.738;19.472;2023-04-03T07:27:59;13.85;;;2.75;;
18411;SDS011;27097;51.738;19.472;2023-04-03T07:34:05;9.15;;;2.80;;
18411;SDS011;27097;51.738;19.472;2023-04-03T07:36:33;13.40;;;2.70;;
18411;SDS011;27097;51.738;19.472;2023-04-03T07:39:01;7.72;;;2.42;;
18411;SDS011;27097;51.738;19.472;2023-04-03T07:44:49;11.13;;;2.63;;
18411;SDS011;27097;51.738;19.472;2023-04-03T07:47:16;8.50;;;2.55;;
18411;SDS011;27097;51.738;19.472;2023-04-03T07:49:43;5.68;;;2.65;;
18411;SDS011;27097;51.738;19.472;2023-04-03T07:52:11;7.47;;;2.63;;
18411;SDS011;27097;51.738;19.472;2023-04-03T07:54:42;14.13;;;2.53;;
18411;SDS011;27097;51.738;19.472;2023-04-03T07:57:09;7.30;;;2.30;;
18411;SDS011;27097;51.738;19.472;2023-04-03T07:59:36;10.95;;;2.20;;
18411;SDS011;27097;51.738;19.472;2023-04-03T08:02:16;8.68;;;2.13;;
18411;SDS011;27097;51.738;19.472;2023-04-03T08:07:16;6.90;;;2.08;;
18411;SDS011;27097;51.738;19.472;2023-04-03T08:12:41;4.43;;;2.08;;
18411;SDS011;27097;51.738;19.472;2023-04-03T08:15:08;6.97;;;2.42;;
18411;SDS011;27097;51.738;19.472;2023-04-03T08:20:31;6.78;;;2.15;;
18411;SDS011;27097;51.738;19.472;2023-04-03T08:23:16;5.90;;;1.95;;
18411;SDS011;27097;51.738;19.472;2023-04-03T08:25:48;11.63;;;2.20;;
18411;SDS011;27097;51.738;19.472;2023-04-03T08:28:18;8.35;;;2.30;;
18411;SDS011;27097;51.738;19.472;2023-04-03T08:30:45;6.30;;;2.30;;
18411;SDS011;27097;51.738;19.472;2023-04-03T08:33:16;6.53;;;2.20;;
18411;SDS011;27097;51.738;19.472;2023-04-03T08:47:20;6.20;;;1.90;;
18411;SDS011;27097;51.738;19.472;2023-04-03T08:49:51;9.70;;;2.47;;
18411;SDS011;27097;51.738;19.472;2023-04-03T08:52:34;13.98;;;2.03;;
18411;SDS011;27097;51.738;19.472;2023-04-03T08:55:22;11.45;;;2.30;;
18411;SDS011;27097;51.738;19.472;2023-04-03T08:57:53;6.50;;;2.20;;
18411;SDS011;27097;51.738;19.472;2023-04-03T09:03:46;5.45;;;2.03;;
18411;SDS011;27097;51.738;19.472;2023-04-03T09:06:14;4.90;;;1.80;;
18411;SDS011;27097;51.738;19.472;2023-04-03T09:08:46;12.90;;;1.92;;
18411;SDS011;27097;51.738;19.472;2023-04-03T09:11:19;5.68;;;2.03;;
18411;SDS011;27097;51.738;19.472;2023-04-03T09:13:52;6.00;;;2.17;;
18411;SDS011;27097;51.738;19.472;2023-04-03T09:16:30;6.25;;;1.92;;
18411;SDS011;27097;51.738;19.472;2023-04-03T09:19:07;4.70;;;1.73;;
18411;SDS011;27097;51.738;19.472;2023-04-03T09:21:41;5.55;;;2.00;;
18411;SDS011;27097;51.738;19.472;2023-04-03T09:24:09;4.32;;;1.75;;
18411;SDS011;27097;51.738;19.472;2023-04-03T09:26:39;3.58;;;1.80;;
18411;SDS011;27097;51.738;19.472;2023-04-03T09:29:10;5.28;;;1.92;;
18411;SDS011;27097;51.738;19.472;2023-04-03T09:31:47;4.28;;;2.00;;
18411;SDS011;27097;51.738;19.472;2023-04-03T09:34:20;4.43;;;1.60;;
18411;SDS011;27097;51.738;19.472;2023-04-03T09:36:54;5.40;;;1.95;;
18411;SDS011;27097;51.738;19.472;2023-04-03T09:39:25;5.00;;;1.95;;
18411;SDS011;27097;51.738;19.472;2023-04-03T09:41:58;7.40;;;2.10;;
18411;SDS011;27097;51.738;19.472;2023-04-03T09:44:27;7.18;;;2.30;;
18411;SDS011;27097;51.738;19.472;2023-04-03T09:46:56;5.90;;;2.00;;
18411;SDS011;27097;51.738;19.472;2023-04-03T09:49:24;6.90;;;2.15;;
18411;SDS011;27097;51.738;19.472;2023-04-03T09:51:52;10.05;;;2.30;;
18411;SDS011;27097;51.738;19.472;2023-04-03T09:57:00;6.32;;;2.42;;
18411;SDS011;27097;51.738;19.472;2023-04-03T10:06:24;4.43;;;1.88;;
18411;SDS011;27097;51.738;19.472;2023-04-03T10:08:58;5.72;;;1.90;;
18411;SDS011;27097;51.738;19.472;2023-04-03T10:11:29;5.32;;;1.83;;
18411;SDS011;27097;51.738;19.472;2023-04-03T10:13:56;5.28;;;1.95;;
18411;SDS011;27097;51.738;19.472;2023-04-03T10:16:26;4.47;;;2.20;;
18411;SDS011;27097;51.738;19.472;2023-04-03T10:22:00;7.70;;;1.95;;
18411;SDS011;27097;51.738;19.472;2023-04-03T10:24:35;3.50;;;1.90;;
18411;SDS011;27097;51.738;19.472;2023-04-03T10:27:10;5.70;;;1.85;;
18411;SDS011;27097;51.738;19.472;2023-04-03T10:29:45;4.72;;;1.90;;
18411;SDS011;27097;51.738;19.472;2023-04-03T10:32:32;7.70;;;2.00;;
18411;SDS011;27097;51.738;19.472;2023-04-03T10:35:13;4.10;;;2.05;;
18411;SDS011;27097;51.738;19.472;2023-04-03T10:37:50;5.97;;;1.90;;
18411;SDS011;27097;51.738;19.472;2023-04-03T10:40:29;14.43;;;2.20;;
18411;SDS011;27097;51.738;19.472;2023-04-03T10:43:02;4.85;;;2.00;;
18411;SDS011;27097;51.738;19.472;2023-04-03T10:45:44;7.50;;;2.03;;
18411;SDS011;27097;51.738;19.472;2023-04-03T10:48:29;4.00;;;2.20;;
18411;SDS011;27097;51.738;19.472;2023-04-03T10:51:37;5.78;;;1.80;;
18411;SDS011;27097;51.738;19.472;2023-04-03T10:57:21;4.20;;;2.10;;
18411;SDS011;27097;51.738;19.472;2023-04-03T10:59:50;9.60;;;1.90;;
18411;SDS011;27097;51.738;19.472;2023-04-03T11:04:59;5.00;;;2.00;;
18411;SDS011;27097;51.738;19.472;2023-04-03T11:07:40;5.32;;;2.25;;
18411;SDS011;27097;51.738;19.472;2023-04-03T11:10:14;5.35;;;1.73;;
18411;SDS011;27097;51.738;19.472;2023-04-03T11:12:48;3.05;;;1.90;;
18411;SDS011;27097;51.738;19.472;2023-04-03T11:15:18;3.28;;;1.70;;
18411;SDS011;27097;51.738;19.472;2023-04-03T11:17:50;7.68;;;2.15;;
18411;SDS011;27097;51.738;19.472;2023-04-03T11:20:21;3.63;;;2.05;;
18411;SDS011;27097;51.738;19.472;2023-04-03T11:22:53;5.50;;;2.05;;
18411;SDS011;27097;51.738;19.472;2023-04-03T11:25:27;3.88;;;1.80;;
18411;SDS011;27097;51.738;19.472;2023-04-03T11:27:58;5.78;;;1.75;;
18411;SDS011;27097;51.738;19.472;2023-04-03T11:30:27;4.22;;;1.80;;
18411;SDS011;27097;51.738;19.472;2023-04-03T11:33:02;4.85;;;1.80;;
18411;SDS011;27097;51.738;19.472;2023-04-03T11:35:41;4.07;;;2.03;;
18411;SDS011;27097;51.738;19.472;2023-04-03T11:38:10;5.38;;;1.90;;
18411;SDS011;27097;51.738;19.472;2023-04-03T11:40:46;5.97;;;1.80;;
18411;SDS011;27097;51.738;19.472;2023-04-03T11:43:21;5.45;;;1.80;;
18411;SDS011;27097;51.738;19.472;2023-04-03T11:52:12;5.25;;;1.63;;
18411;SDS011;27097;51.738;19.472;2023-04-03T11:55:09;8.65;;;4.07;;
18411;SDS011;27097;51.738;19.472;2023-04-03T11:58:19;6.65;;;2.50;;
18411;SDS011;27097;51.738;19.472;2023-04-03T12:12:42;6.82;;;2.20;;
18411;SDS011;27097;51.738;19.472;2023-04-03T12:15:24;8.88;;;2.40;;
18411;SDS011;27097;51.738;19.472;2023-04-03T12:21:07;5.20;;;2.13;;
18411;SDS011;27097;51.738;19.472;2023-04-03T12:23:35;6.32;;;2.10;;
18411;SDS011;27097;51.738;19.472;2023-04-03T12:26:21;3.80;;;2.15;;
18411;SDS011;27097;51.738;19.472;2023-04-03T12:28:52;6.10;;;2.13;;
18411;SDS011;27097;51.738;19.472;2023-04-03T12:31:22;4.95;;;2.40;;
18411;SDS011;27097;51.738;19.472;2023-04-03T12:34:01;3.03;;;1.73;;
18411;SDS011;27097;51.738;19.472;2023-04-03T12:36:41;6.30;;;2.00;;
18411;SDS011;27097;51.738;19.472;2023-04-03T12:39:25;3.65;;;2.00;;
18411;SDS011;27097;51.738;19.472;2023-04-03T12:42:23;3.92;;;1.92;;
18411;SDS011;27097;51.738;19.472;2023-04-03T12:48:34;2.72;;;1.83;;
18411;SDS011;27097;51.738;19.472;2023-04-03T12:53:58;4.60;;;2.08;;
18411;SDS011;27097;51.738;19.472;2023-04-03T12:56:31;2.92;;;1.92;;
18411;SDS011;27097;51.738;19.472;2023-04-03T12:59:12;4.10;;;1.92;;
18411;SDS011;27097;51.738;19.472;2023-04-03T13:01:41;5.35;;;2.03;;
18411;SDS011;27097;51.738;19.472;2023-04-03T13:04:12;4.82;;;1.98;;
18411;SDS011;27097;51.738;19.472;2023-04-03T13:06:39;3.00;;;1.95;;
18411;SDS011;27097;51.738;19.472;2023-04-03T13:09:21;4.03;;;1.90;;
18411;SDS011;27097;51.738;19.472;2023-04-03T13:11:54;2.90;;;2.08;;
18411;SDS011;27097;51.738;19.472;2023-04-03T13:14:25;2.58;;;1.85;;
18411;SDS011;27097;51.738;19.472;2023-04-03T13:17:12;2.47;;;1.70;;
18411;SDS011;27097;51.738;19.472;2023-04-03T13:23:10;4.45;;;1.85;;
18411;SDS011;27097;51.738;19.472;2023-04-03T13:28:20;7.30;;;1.88;;
18411;SDS011;27097;51.738;19.472;2023-04-03T13:30:59;4.65;;;1.70;;
18411;SDS011;27097;51.738;19.472;2023-04-03T13:37:26;6.32;;;1.88;;
18411;SDS011;27097;51.738;19.472;2023-04-03T13:40:17;7.13;;;1.63;;
18411;SDS011;27097;51.738;19.472;2023-04-03T13:42:44;2.55;;;1.33;;
18411;SDS011;27097;51.738;19.472;2023-04-03T13:45:19;5.25;;;1.60;;
18411;SDS011;27097;51.738;19.472;2023-04-03T13:47:49;4.30;;;1.80;;
18411;SDS011;27097;51.738;19.472;2023-04-03T13:50:18;4.88;;;1.40;;
18411;SDS011;27097;51.738;19.472;2023-04-03T13:52:48;3.60;;;1.45;;
18411;SDS011;27097;51.738;19.472;2023-04-03T13:55:21;5.68;;;1.60;;
18411;SDS011;27097;51.738;19.472;2023-04-03T13:57:53;6.05;;;1.48;;
18411;SDS011;27097;51.738;19.472;2023-04-03T14:00:31;8.43;;;1.48;;
18411;SDS011;27097;51.738;19.472;2023-04-03T14:03:02;2.55;;;1.60;;
18411;SDS011;27097;51.738;19.472;2023-04-03T14:05:29;11.20;;;1.80;;
18411;SDS011;27097;51.738;19.472;2023-04-03T14:07:56;7.75;;;1.70;;
18411;SDS011;27097;51.738;19.472;2023-04-03T14:10:25;5.18;;;1.92;;
18411;SDS011;27097;51.738;19.472;2023-04-03T14:12:52;3.05;;;2.05;;
18411;SDS011;27097;51.738;19.472;2023-04-03T14:15:20;8.18;;;2.00;;
18411;SDS011;27097;51.738;19.472;2023-04-03T14:17:50;15.05;;;2.25;;
18411;SDS011;27097;51.738;19.472;2023-04-03T14:20:19;4.07;;;1.88;;
18411;SDS011;27097;51.738;19.472;2023-04-03T14:22:48;7.40;;;1.67;;
18411;SDS011;27097;51.738;19.472;2023-04-03T14:25:16;8.38;;;1.70;;
18411;SDS011;27097;51.738;19.472;2023-04-03T14:27:45;5.38;;;1.75;;
18411;SDS011;27097;51.738;19.472;2023-04-03T14:30:16;21.13;;;2.20;;
18411;SDS011;27097;51.738;19.472;2023-04-03T14:35:32;5.72;;;1.60;;
18411;SDS011;27097;51.738;19.472;2023-04-03T14:37:59;4.88;;;1.60;;
18411;SDS011;27097;51.738;19.472;2023-04-03T14:40:26;8.23;;;1.67;;
18411;SDS011;27097;51.738;19.472;2023-04-03T14:42:59;9.82;;;1.65;;
18411;SDS011;27097;51.738;19.472;2023-04-03T14:45:26;9.90;;;1.75;;
18411;SDS011;27097;51.738;19.472;2023-04-03T14:47:54;4.68;;;1.70;;
18411;SDS011;27097;51.738;19.472;2023-04-03T14:50:23;5.70;;;1.40;;
18411;SDS011;27097;51.738;19.472;2023-04-03T14:52:52;2.53;;;1.45;;
18411;SDS011;27097;51.738;19.472;2023-04-03T14:55:24;17.70;;;2.55;;
18411;SDS011;27097;51.738;19.472;2023-04-03T14:57:51;5.35;;;1.60;;
18411;SDS011;27097;51.738;19.472;2023-04-03T15:00:30;3.95;;;1.40;;
18411;SDS011;27097;51.738;19.472;2023-04-03T15:02:58;6.43;;;1.35;;
18411;SDS011;27097;51.738;19.472;2023-04-03T15:05:25;5.63;;;1.60;;
18411;SDS011;27097;51.738;19.472;2023-04-03T15:07:52;9.48;;;2.00;;
18411;SDS011;27097;51.738;19.472;2023-04-03T15:10:26;10.20;;;1.70;;
18411;SDS011;27097;51.738;19.472;2023-04-03T15:12:58;8.55;;;1.60;;
18411;SDS011;27097;51.738;19.472;2023-04-03T15:15:28;5.68;;;1.70;;
18411;SDS011;27097;51.738;19.472;2023-04-03T15:17:56;7.35;;;1.52;;
18411;SDS011;27097;51.738;19.472;2023-04-03T15:20:24;9.63;;;1.52;;
18411;SDS011;27097;51.738;19.472;2023-04-03T15:22:52;4.45;;;1.50;;
18411;SDS011;27097;51.738;19.472;2023-04-03T15:25:21;6.15;;;1.50;;
18411;SDS011;27097;51.738;19.472;2023-04-03T15:27:48;5.05;;;1.33;;
18411;SDS011;27097;51.738;19.472;2023-04-03T15:30:15;8.07;;;1.75;;
18411;SDS011;27097;51.738;19.472;2023-04-03T15:32:45;3.67;;;1.50;;
18411;SDS011;27097;51.738;19.472;2023-04-03T15:35:12;7.07;;;1.60;;
18411;SDS011;27097;51.738;19.472;2023-04-03T15:37:40;12.93;;;1.65;;
18411;SDS011;27097;51.738;19.472;2023-04-03T15:40:08;6.35;;;1.80;;
18411;SDS011;27097;51.738;19.472;2023-04-03T15:42:35;2.67;;;1.55;;
18411;SDS011;27097;51.738;19.472;2023-04-03T15:45:02;6.18;;;1.27;;
18411;SDS011;27097;51.738;19.472;2023-04-03T15:47:33;7.07;;;1.42;;
18411;SDS011;27097;51.738;19.472;2023-04-03T15:50:04;6.85;;;1.70;;
18411;SDS011;27097;51.738;19.472;2023-04-03T15:52:32;34.08;;;3.00;;
18411;SDS011;27097;51.738;19.472;2023-04-03T15:54:59;11.73;;;1.73;;
18411;SDS011;27097;51.738;19.472;2023-04-03T15:57:27;6.75;;;1.52;;
18411;SDS011;27097;51.738;19.472;2023-04-03T15:59:54;11.90;;;1.92;;
18411;SDS011;27097;51.738;19.472;2023-04-03T16:02:21;15.23;;;2.05;;
18411;SDS011;27097;51.738;19.472;2023-04-03T16:04:48;15.48;;;2.05;;
18411;SDS011;27097;51.738;19.472;2023-04-03T16:07:17;7.32;;;1.65;;
18411;SDS011;27097;51.738;19.472;2023-04-03T16:09:44;6.00;;;1.58;;
18411;SDS011;27097;51.738;19.472;2023-04-03T16:12:11;9.98;;;1.58;;
18411;SDS011;27097;51.738;19.472;2023-04-03T16:14:41;8.55;;;1.55;;
18411;SDS011;27097;51.738;19.472;2023-04-03T16:17:08;6.20;;;1.73;;
18411;SDS011;27097;51.738;19.472;2023-04-03T16:19:35;5.30;;;1.80;;
18411;SDS011;27097;51.738;19.472;2023-04-03T16:22:02;6.45;;;1.88;;
18411;SDS011;27097;51.738;19.472;2023-04-03T16:24:36;6.03;;;1.70;;
18411;SDS011;27097;51.738;19.472;2023-04-03T16:27:03;6.50;;;1.60;;
18411;SDS011;27097;51.738;19.472;2023-04-03T16:29:30;7.53;;;1.80;;
18411;SDS011;27097;51.738;19.472;2023-04-03T16:32:03;8.63;;;2.13;;
18411;SDS011;27097;51.738;19.472;2023-04-03T16:35:12;8.23;;;2.08;;
18411;SDS011;27097;51.738;19.472;2023-04-03T16:37:51;13.02;;;2.20;;
18411;SDS011;27097;51.738;19.472;2023-04-03T16:40:33;3.80;;;1.48;;
18411;SDS011;27097;51.738;19.472;2023-04-03T16:43:01;6.78;;;1.88;;
18411;SDS011;27097;51.738;19.472;2023-04-03T16:45:28;5.82;;;2.10;;
18411;SDS011;27097;51.738;19.472;2023-04-03T16:47:55;64.00;;;22.90;;
18411;SDS011;27097;51.738;19.472;2023-04-03T16:50:25;57.72;;;16.45;;
18411;SDS011;27097;51.738;19.472;2023-04-03T16:53:07;29.38;;;11.57;;
18411;SDS011;27097;51.738;19.472;2023-04-03T16:58:47;50.45;;;18.90;;
18411;SDS011;27097;51.738;19.472;2023-04-03T17:01:14;39.35;;;13.95;;
18411;SDS011;27097;51.738;19.472;2023-04-03T17:03:42;39.65;;;15.10;;
18411;SDS011;27097;51.738;19.472;2023-04-03T17:06:10;30.00;;;9.80;;
18411;SDS011;27097;51.738;19.472;2023-04-03T17:08:45;21.15;;;7.90;;
18411;SDS011;27097;51.738;19.472;2023-04-03T17:11:27;16.45;;;6.35;;
18411;SDS011;27097;51.738;19.472;2023-04-03T17:13:54;23.27;;;6.50;;
18411;SDS011;27097;51.738;19.472;2023-04-03T17:16:21;20.92;;;5.85;;
18411;SDS011;27097;51.738;19.472;2023-04-03T17:18:49;17.40;;;5.75;;
18411;SDS011;27097;51.738;19.472;2023-04-03T17:21:17;13.18;;;4.53;;
18411;SDS011;27097;51.738;19.472;2023-04-03T17:23:48;22.70;;;4.78;;
18411;SDS011;27097;51.738;19.472;2023-04-03T17:26:17;12.20;;;4.50;;
18411;SDS011;27097;51.738;19.472;2023-04-03T17:28:47;16.67;;;4.22;;
18411;SDS011;27097;51.738;19.472;2023-04-03T17:31:14;10.90;;;4.05;;
18411;SDS011;27097;51.738;19.472;2023-04-03T17:33:41;10.88;;;4.40;;
18411;SDS011;27097;51.738;19.472;2023-04-03T17:36:08;13.40;;;3.58;;
18411;SDS011;27097;51.738;19.472;2023-04-03T17:38:35;10.15;;;4.30;;
18411;SDS011;27097;51.738;19.472;2023-04-03T17:41:03;12.75;;;3.78;;
18411;SDS011;27097;51.738;19.472;2023-04-03T17:43:31;9.98;;;3.40;;
18411;SDS011;27097;51.738;19.472;2023-04-03T17:46:00;10.55;;;3.50;;
18411;SDS011;27097;51.738;19.472;2023-04-03T17:48:28;10.82;;;3.40;;
18411;SDS011;27097;51.738;19.472;2023-04-03T17:50:55;8.85;;;3.35;;
18411;SDS011;27097;51.738;19.472;2023-04-03T17:53:22;9.52;;;3.28;;
18411;SDS011;27097;51.738;19.472;2023-04-03T17:55:51;10.18;;;3.30;;
18411;SDS011;27097;51.738;19.472;2023-04-03T17:58:18;11.95;;;3.25;;
18411;SDS011;27097;51.738;19.472;2023-04-03T18:00:45;10.15;;;3.13;;
18411;SDS011;27097;51.738;19.472;2023-04-03T18:03:15;17.35;;;3.22;;
18411;SDS011;27097;51.738;19.472;2023-04-03T18:05:44;9.48;;;3.40;;
18411;SDS011;27097;51.738;19.472;2023-04-03T18:08:11;7.15;;;2.80;;